Time;durP1;ratioP1;P1;durP2;ratioP2;P2;SDS_P1;SDS_P2;PMS_P1;PMS_P2;Temp;Humidity;BMP_temperature;BMP_pressure;BME280_temperature;BME280_humidity;BME280_pressure;Samples;Min_cycle;Max_cycle;Signal;HPM_P1;HPM_P2
2024/01/08 00:17:58;;;;;;;36.10;18.80;;;;;;;-8.74;84.89;99058.16;435010;1255;110898;-39
2024/01/08 00:28:06;;;;;;;29.30;16.10;;;;;;;-8.88;84.64;99070.36;435249;1256;106507;-40
2024/01/08 00:38:11;;;;;;;33.40;17.10;;;;;;;-8.95;84.67;99085.50;435718;1251;98017;-40
2024/01/08 00:48:18;;;;;;;31.80;18.70;;;;;;;-9.00;84.70;99096.70;435114;1255;107484;-39
2024/01/08 01:08:32;;;;;;;36.80;20.00;;;;;;;-9.08;84.50;99110.34;435059;1253;110830;-39
2024/01/08 01:18:36;;;;;;;39.80;17.80;;;;;;;-9.19;84.43;99114.48;435118;1254;108252;-41
2024/01/08 01:28:43;;;;;;;42.40;18.20;;;;;;;-9.15;84.79;99109.81;435329;1253;98090;-40
2024/01/08 01:38:50;;;;;;;39.70;20.90;;;;;;;-9.15;84.62;99120.39;435337;1255;107224;-39
2024/01/08 01:48:58;;;;;;;37.00;19.20;;;;;;;-9.13;84.52;99124.98;435095;1256;98923;-41
2024/01/08 01:59:06;;;;;;;36.70;17.80;;;;;;;-9.12;84.72;99129.40;435207;1256;110690;-39
2024/01/08 02:19:19;;;;;;;25.90;13.50;;;;;;;-9.16;84.59;99133.92;435114;1256;99266;-40
2024/01/08 02:49:37;;;;;;;32.30;16.50;;;;;;;-9.43;83.72;99156.55;436100;1255;111717;-40
2024/01/08 02:59:44;;;;;;;36.80;16.50;;;;;;;-9.43;83.72;99162.02;435038;1256;108194;-40
2024/01/08 03:09:56;;;;;;;27.30;16.00;;;;;;;-9.35;83.57;99174.83;435029;1255;99256;-40
2024/01/08 03:20:04;;;;;;;35.90;17.70;;;;;;;-9.49;83.16;99177.86;435162;1256;107137;-40
2024/01/08 03:30:12;;;;;;;25.50;12.50;;;;;;;-9.58;83.06;99189.70;435080;1264;99262;-39
2024/01/08 03:40:19;;;;;;;26.40;13.80;;;;;;;-9.58;83.06;99200.80;435333;1255;109525;-40
2024/01/08 03:50:26;;;;;;;29.00;15.90;;;;;;;-9.55;83.13;99203.66;435114;1254;109125;-39
2024/01/08 04:00:34;;;;;;;31.40;14.70;;;;;;;-9.55;82.82;99210.67;435046;1255;99217;-40
2024/01/08 04:10:41;;;;;;;22.80;11.30;;;;;;;-9.56;82.38;99230.33;435276;1256;107613;-40
2024/01/08 04:20:47;;;;;;;22.80;13.10;;;;;;;-9.66;82.44;99240.51;435184;1256;99241;-39
2024/01/08 04:30:53;;;;;;;24.70;12.60;;;;;;;-9.58;82.25;99255.07;435099;1256;110760;-40
2024/01/08 04:40:59;;;;;;;25.60;14.00;;;;;;;-9.71;81.94;99272.86;435046;1256;107837;-41
2024/01/08 04:51:07;;;;;;;21.80;13.50;;;;;;;-9.76;81.78;99279.63;435062;1256;99231;-40
2024/01/08 05:01:12;;;;;;;24.30;13.20;;;;;;;-9.84;81.54;99286.21;435198;1256;108116;-39
2024/01/08 05:11:20;;;;;;;29.20;13.50;;;;;;;-9.84;81.33;99297.50;435267;1255;99101;-41
2024/01/08 05:21:27;;;;;;;25.60;13.90;;;;;;;-9.78;81.60;99307.86;435167;1256;111789;-39
2024/01/08 05:31:34;;;;;;;30.10;14.30;;;;;;;-9.76;81.70;99314.73;435124;1253;107773;-39
2024/01/08 05:51:47;;;;;;;18.10;11.10;;;;;;;-9.77;81.51;99342.44;435339;1255;107088;-40
2024/01/08 06:01:54;;;;;;;26.80;13.40;;;;;;;-9.59;81.94;99349.32;435100;1255;98854;-40
2024/01/08 06:12:01;;;;;;;25.10;13.80;;;;;;;-9.65;81.34;99353.58;435226;1256;112855;-40
2024/01/08 06:22:08;;;;;;;33.70;17.60;;;;;;;-9.52;81.87;99360.31;435194;1256;108163;-40
2024/01/08 06:32:14;;;;;;;28.70;16.00;;;;;;;-9.59;81.46;99376.80;435152;1253;98014;-40
2024/01/08 06:42:21;;;;;;;29.20;14.70;;;;;;;-9.74;81.14;99384.40;435188;1255;108078;-41
2024/01/08 06:52:29;;;;;;;31.70;16.60;;;;;;;-9.79;81.16;99391.85;435199;1255;99454;-38
2024/01/08 07:12:42;;;;;;;25.60;14.40;;;;;;;-9.77;81.30;99424.02;435515;1256;108010;-40
2024/01/08 07:22:49;;;;;;;30.00;15.10;;;;;;;-9.66;81.05;99437.06;435223;1253;99227;-39
2024/01/08 07:32:56;;;;;;;30.20;14.30;;;;;;;-9.51;81.23;99454.48;435249;1255;108261;-40
2024/01/08 07:43:03;;;;;;;25.70;14.50;;;;;;;-9.44;80.92;99469.65;435127;1255;99214;-40
2024/01/08 07:53:09;;;;;;;28.00;15.10;;;;;;;-9.40;80.78;99477.44;435104;1256;112172;-39
2024/01/08 08:03:15;;;;;;;24.10;13.90;;;;;;;-9.20;80.79;99493.79;435104;1255;107098;-39
2024/01/08 08:13:22;;;;;;;32.30;16.10;;;;;;;-9.08;80.73;99507.95;435261;1253;99072;-40
2024/01/08 08:23:29;;;;;;;32.00;16.50;;;;;;;-9.18;80.00;99526.09;435209;1256;108347;-37
2024/01/08 08:33:38;;;;;;;28.00;14.60;;;;;;;-9.24;79.87;99536.68;435107;1256;99237;-39
2024/01/08 08:43:44;;;;;;;31.80;16.20;;;;;;;-9.17;79.97;99544.83;435073;1256;111207;-39
2024/01/08 08:53:51;;;;;;;29.30;14.90;;;;;;;-9.23;79.62;99554.21;435184;1256;107357;-39
2024/01/08 09:03:56;;;;;;;31.20;16.70;;;;;;;-9.24;79.80;99563.16;435263;1256;98011;-40
2024/01/08 09:14:03;;;;;;;36.30;16.50;;;;;;;-9.17;79.79;99579.17;435120;1256;108652;-40
2024/01/08 09:24:11;;;;;;;33.80;18.80;;;;;;;-8.87;79.96;99601.61;435096;1253;98008;-41
2024/01/08 09:34:17;;;;;;;30.10;16.90;;;;;;;-8.75;79.63;99605.89;435200;1258;111393;-39
2024/01/08 09:44:25;;;;;;;32.10;17.20;;;;;;;-8.51;79.90;99607.96;435208;1256;108404;-40
2024/01/08 09:54:32;;;;;;;33.10;17.60;;;;;;;-8.16;79.48;99612.30;435147;1265;99217;-40
2024/01/08 10:04:38;;;;;;;31.00;16.70;;;;;;;-8.23;78.89;99616.29;435209;1257;109354;-39
2024/01/08 10:14:45;;;;;;;29.70;16.30;;;;;;;-8.08;78.91;99621.27;435151;1256;99582;-39
2024/01/08 10:24:55;;;;;;;33.50;19.00;;;;;;;-7.65;79.05;99621.30;435037;1254;112326;-39
2024/01/08 11:15:25;;;;;;;28.30;15.00;;;;;;;-7.22;76.96;99628.13;435345;1256;111027;-40
2024/01/08 11:25:32;;;;;;;28.10;14.40;;;;;;;-7.16;76.65;99632.39;435102;1257;109981;-40
2024/01/08 11:35:37;;;;;;;31.50;14.90;;;;;;;-6.94;76.72;99638.94;435082;1251;99263;-40
2024/01/08 11:45:44;;;;;;;28.80;15.20;;;;;;;-6.77;76.99;99645.44;435193;1257;107186;-39
2024/01/08 11:55:52;;;;;;;30.90;15.20;;;;;;;-6.82;76.46;99652.58;435476;1251;97975;-39
2024/01/08 12:26:20;;;;;;;24.20;14.60;;;;;;;-7.81;75.36;99677.20;435123;1251;99272;-40
2024/01/08 12:36:28;;;;;;;33.10;19.10;;;;;;;-7.82;75.60;99682.40;435273;1251;106846;-41
2024/01/08 12:46:34;;;;;;;36.60;19.60;;;;;;;-7.96;74.91;99685.58;435155;1257;99217;-41
2024/01/08 12:56:40;;;;;;;34.00;19.40;;;;;;;-8.17;74.56;99685.77;434843;1257;425611;-41
2024/01/08 13:06:47;;;;;;;39.50;21.60;;;;;;;-8.26;74.24;99697.02;435228;1256;108310;-42
2024/01/08 13:16:54;;;;;;;31.40;17.20;;;;;;;-8.30;74.51;99707.02;435175;1257;99227;-39
2024/01/08 13:27:00;;;;;;;35.20;18.80;;;;;;;-8.43;74.22;99719.88;435259;1256;108372;-38
2024/01/08 13:37:06;;;;;;;30.20;16.50;;;;;;;-8.58;74.41;99735.73;435242;1257;99197;-40
2024/01/08 13:47:14;;;;;;;29.70;16.80;;;;;;;-8.69;74.45;99756.70;435146;1257;113019;-40
2024/01/08 13:57:21;;;;;;;40.90;17.00;;;;;;;-8.73;74.69;99773.45;435191;1256;107206;-40
2024/01/08 14:07:28;;;;;;;34.70;18.60;;;;;;;-8.74;75.00;99784.44;435304;1256;99246;-40
2024/01/08 14:17:38;;;;;;;30.20;17.80;;;;;;;-8.77;75.01;99803.24;435181;1255;108035;-39
2024/01/08 14:27:45;;;;;;;30.70;16.00;;;;;;;-8.82;75.23;99817.35;435031;1251;99087;-39
2024/01/08 14:37:53;;;;;;;31.60;16.20;;;;;;;-8.86;75.75;99829.67;435061;1251;111314;-40
2024/01/08 14:47:59;;;;;;;32.10;17.90;;;;;;;-8.89;75.76;99841.96;435272;1256;108199;-41
2024/01/08 14:58:06;;;;;;;33.00;18.20;;;;;;;-8.99;75.87;99853.94;435121;1251;99234;-39
2024/01/08 15:08:13;;;;;;;31.80;17.20;;;;;;;-9.09;75.99;99872.16;435213;1256;109009;-40
2024/01/08 15:18:23;;;;;;;39.90;21.50;;;;;;;-9.21;76.11;99885.23;435246;1251;99219;-40
2024/01/08 15:28:30;;;;;;;40.20;19.20;;;;;;;-9.40;76.21;99904.42;435253;1257;111933;-39
2024/01/08 15:38:38;;;;;;;35.70;19.80;;;;;;;-9.58;76.32;99916.38;435171;1253;107526;-40
2024/01/08 15:48:45;;;;;;;42.10;21.10;;;;;;;-9.81;76.39;99928.69;435259;1251;99225;-40
2024/01/08 15:58:54;;;;;;;36.00;19.80;;;;;;;-9.93;76.44;99947.85;435435;1256;106957;-39
2024/01/08 16:08:59;;;;;;;;;;;;;;;-10.08;76.73;99956.19;435388;1256;98809;-40
2024/01/08 16:19:06;;;;;;;46.50;23.10;;;;;;;-10.21;76.65;99965.30;436384;1253;111346;-40
2024/01/08 16:29:13;;;;;;;55.00;25.10;;;;;;;-10.29;76.60;99969.42;435505;1256;108448;-40
2024/01/08 16:49:26;;;;;;;53.40;27.20;;;;;;;-10.37;76.95;99990.88;435103;1251;109339;-40
2024/01/08 16:59:34;;;;;;;55.60;26.40;;;;;;;-10.48;77.15;100004.14;435190;1253;99240;-40
2024/01/08 17:09:40;;;;;;;51.80;25.60;;;;;;;-10.58;77.04;100016.46;435138;1256;112592;-40
2024/01/08 17:19:47;;;;;;;55.80;25.20;;;;;;;-10.62;77.20;100029.27;435228;1252;106791;-39
2024/01/08 17:29:54;;;;;;;55.40;28.30;;;;;;;-10.75;77.25;100032.83;435238;1256;98933;-40
2024/01/08 17:40:00;;;;;;;76.90;30.80;;;;;;;-10.83;77.16;100046.14;435289;1255;107774;-40
2024/01/08 17:50:10;;;;;;;52.00;25.90;;;;;;;-10.89;77.37;100056.56;435142;1255;99248;-41
2024/01/08 18:00:17;;;;;;;58.60;26.80;;;;;;;-10.98;77.35;100068.17;435205;1251;111133;-41
2024/01/08 18:10:23;;;;;;;56.00;28.50;;;;;;;-11.01;77.89;100079.70;435136;1255;107590;-38
2024/01/08 18:20:29;;;;;;;64.90;30.70;;;;;;;-11.16;77.71;100090.80;435165;1257;99262;-39
2024/01/08 18:30:35;;;;;;;72.40;35.80;;;;;;;-11.32;77.41;100107.73;435223;1251;108104;-40
2024/01/08 18:40:43;;;;;;;64.80;34.90;;;;;;;-11.50;77.38;100119.27;435229;1255;99221;-40
2024/01/08 18:50:52;;;;;;;62.20;30.40;;;;;;;-11.85;77.29;100134.15;435214;1251;111052;-40
2024/01/08 19:01:00;;;;;;;66.50;32.10;;;;;;;-12.06;77.41;100140.48;435232;1256;106882;-39
2024/01/08 19:11:07;;;;;;;70.60;31.40;;;;;;;-12.26;77.64;100156.77;435997;1253;99199;-39
2024/01/08 19:21:18;;;;;;;80.70;34.30;;;;;;;-12.34;77.59;100166.04;437253;1251;108441;-38
2024/01/08 19:31:24;;;;;;;76.30;34.20;;;;;;;-12.49;77.17;100187.58;437248;1255;99161;-39
2024/01/08 19:41:32;;;;;;;90.70;37.30;;;;;;;-12.60;77.48;100194.17;435393;1256;113572;-43
2024/01/08 19:51:40;;;;;;;79.00;36.60;;;;;;;-12.68;77.79;100197.85;435189;1251;107626;-40
2024/01/08 20:01:47;;;;;;;83.80;35.00;;;;;;;-12.66;78.01;100207.98;435263;1251;99298;-40
2024/01/08 20:11:54;;;;;;;89.30;40.70;;;;;;;-12.81;77.83;100229.10;435177;1255;108563;-40
2024/01/08 20:22:02;;;;;;;124.60;51.10;;;;;;;-12.96;77.65;100234.49;434850;1255;99220;-40
2024/01/08 20:32:09;;;;;;;116.10;50.90;;;;;;;-13.10;77.30;100233.50;435117;1256;110777;-40
2024/01/08 20:42:16;;;;;;;96.70;42.60;;;;;;;-13.38;77.38;100235.30;435193;1251;108595;-40
2024/01/08 20:52:24;;;;;;;118.90;47.70;;;;;;;-13.44;77.62;100239.36;435240;1251;99248;-38
2024/01/08 21:02:30;;;;;;;119.70;51.70;;;;;;;-13.48;77.79;100241.34;435164;1256;107285;-40
2024/01/08 21:12:38;;;;;;;103.30;44.20;;;;;;;-13.64;77.60;100235.29;435115;1255;98415;-40
2024/01/08 21:22:45;;;;;;;77.50;35.90;;;;;;;-13.83;77.63;100246.12;435183;1253;112132;-41
2024/01/08 21:32:52;;;;;;;100.30;42.10;;;;;;;-13.89;77.60;100249.15;435217;1256;107746;-40
2024/01/08 21:42:58;;;;;;;305.10;92.90;;;;;;;-13.97;77.40;100267.63;435172;1255;99134;-40
2024/01/08 21:53:04;;;;;;;127.40;58.50;;;;;;;-14.25;77.25;100292.00;435174;1251;107616;-38
2024/01/08 22:03:11;;;;;;;134.20;55.40;;;;;;;-14.34;77.26;100303.23;435149;1256;99239;-39
2024/01/08 22:13:18;;;;;;;147.80;62.10;;;;;;;-14.33;77.33;100310.82;435192;1251;111939;-41
2024/01/08 22:23:25;;;;;;;155.20;61.80;;;;;;;-14.47;77.42;100319.42;435097;1255;107690;-40
2024/01/08 22:33:32;;;;;;;170.20;65.50;;;;;;;-14.57;77.42;100329.30;435141;1251;99230;-40
2024/01/08 22:43:39;;;;;;;158.80;68.60;;;;;;;-14.75;77.22;100335.24;435227;1253;107180;-39
2024/01/08 22:53:46;;;;;;;195.80;72.60;;;;;;;-14.82;77.39;100335.55;435204;1255;99201;-40
2024/01/08 23:03:53;;;;;;;197.70;77.50;;;;;;;-15.00;76.81;100337.23;436414;1251;112329;-40
2024/01/08 23:14:00;;;;;;;199.60;73.00;;;;;;;-15.14;77.03;100343.09;435972;1256;107585;-40
2024/01/08 23:24:08;;;;;;;185.00;75.80;;;;;;;-15.11;77.09;100347.60;436327;1253;98022;-40
2024/01/08 23:34:15;;;;;;;212.10;80.40;;;;;;;-15.29;76.86;100355.85;435287;1251;107932;-40
2024/01/08 23:44:27;;;;;;;194.30;78.80;;;;;;;-15.58;76.59;100350.43;435132;1257;99223;-39
2024/01/08 23:54:34;;;;;;;184.00;72.10;;;;;;;-15.64;76.66;100360.85;435136;1252;112040;-40
